createdAt,value
2023-02-28T00:08:25.219Z,-1.3
2023-02-28T00:18:28.634Z,-1.2
2023-02-28T00:28:29.552Z,-1.4
2023-02-28T00:38:31.877Z,-1.3
2023-02-28T00:48:33.580Z,-1.3
2023-02-28T00:58:35.598Z,-1.7
2023-02-28T01:08:38.052Z,-1.9
2023-02-28T01:18:39.785Z,-1.8
2023-02-28T01:28:41.693Z,-2
2023-02-28T01:38:44.244Z,-2.4
2023-02-28T01:48:46.814Z,-2.7
2023-02-28T01:58:48.789Z,-2.9
2023-02-28T02:08:50.619Z,-2.8
2023-02-28T02:18:52.486Z,-2.9
2023-02-28T02:28:54.707Z,-3
2023-02-28T02:38:56.809Z,-3
2023-02-28T02:48:59.393Z,-3.1
2023-02-28T02:59:01.292Z,-3.3
2023-02-28T03:09:03.177Z,-3.6
2023-02-28T03:19:05.621Z,-3.5
2023-02-28T03:29:08.109Z,-3.6
2023-02-28T03:39:10.065Z,-3.6
2023-02-28T03:49:12.047Z,-3.6
2023-02-28T03:59:13.979Z,-3.5
2023-02-28T04:19:18.712Z,-3.6
2023-02-28T04:29:20.671Z,-3.6
2023-02-28T04:39:22.558Z,-3.6
2023-02-28T04:49:24.805Z,-3.5
2023-02-28T04:59:27.131Z,-3.5
2023-02-28T05:09:29.131Z,-3.5
2023-02-28T05:19:31.420Z,-3.3
2023-02-28T05:29:34.027Z,-3.3
2023-02-28T05:39:35.918Z,-3.5
2023-02-28T05:49:37.598Z,-3.6
2023-02-28T05:59:39.566Z,-3.8
2023-02-28T06:09:41.480Z,-3.9
2023-02-28T06:19:43.342Z,-3.9
2023-02-28T06:29:45.400Z,-4.1
2023-02-28T06:39:47.105Z,-4.3
2023-02-28T06:49:49.535Z,-4.2
2023-02-28T06:59:51.183Z,-3.9
2023-02-28T07:09:52.863Z,-3.6
2023-02-28T07:19:55.288Z,-3.4
2023-02-28T07:29:57.621Z,-3.1
2023-02-28T07:39:59.388Z,-2.6
2023-02-28T07:50:01.314Z,-2.2
2023-02-28T08:00:03.530Z,-1.8
2023-02-28T08:10:05.203Z,-1.4
2023-02-28T08:20:07.005Z,-0.8
2023-02-28T08:30:09.040Z,-0.2
2023-02-28T08:40:10.865Z,0.5
2023-02-28T08:50:12.497Z,1
2023-02-28T09:00:14.650Z,1
2023-02-28T09:10:17.178Z,1.4
2023-02-28T09:20:18.880Z,2
2023-02-28T09:30:20.698Z,1.8
2023-02-28T09:40:23.218Z,2.2
2023-02-28T09:50:25.620Z,2.5
2023-02-28T10:00:28.128Z,3
2023-02-28T10:10:30.020Z,2.9
2023-02-28T10:20:32.590Z,2.4
2023-02-28T10:30:34.320Z,2.6
2023-02-28T10:40:36.185Z,3.9
2023-02-28T10:50:38.225Z,4.1
2023-02-28T11:00:40.128Z,4.3
2023-02-28T11:10:42.588Z,4.4
2023-02-28T11:20:45.201Z,4.5
2023-02-28T11:30:47.107Z,4.9
2023-02-28T11:40:49.557Z,4.2
2023-02-28T11:50:52.156Z,3.9
2023-02-28T12:00:54.748Z,4.1
2023-02-28T12:10:56.779Z,3.9
2023-02-28T12:20:58.742Z,4
2023-02-28T12:31:01.183Z,3.7
2023-02-28T12:41:03.223Z,4
2023-02-28T12:51:11.823Z,4.6
2023-02-28T13:01:14.180Z,4.3
2023-02-28T13:11:21.439Z,4.8
2023-02-28T13:21:18.153Z,6
2023-02-28T13:31:20.589Z,5.6
2023-02-28T13:41:22.661Z,4.6
2023-02-28T13:51:24.519Z,3.9
2023-02-28T14:01:27.308Z,4.7
2023-02-28T14:11:29.402Z,4
2023-02-28T14:31:33.905Z,5.4
2023-02-28T14:41:35.837Z,6.4
2023-02-28T14:51:38.388Z,5.9
2023-02-28T15:01:40.340Z,4.9
2023-02-28T15:11:42.922Z,4.9
2023-02-28T15:21:45.531Z,4.7
2023-02-28T15:41:49.333Z,4.9
2023-02-28T15:51:51.863Z,4.5
2023-02-28T16:01:54.496Z,4.4
2023-02-28T16:11:56.501Z,4.3
2023-02-28T16:21:58.933Z,4
2023-02-28T16:32:01.154Z,3.9
2023-02-28T16:42:03.007Z,3.8
2023-02-28T16:52:05.028Z,3.5
2023-02-28T17:02:07.072Z,3.4
2023-02-28T17:12:09.035Z,2.9
2023-02-28T17:22:11.572Z,2.6
2023-02-28T17:32:18.028Z,2.6
2023-02-28T17:42:15.195Z,2.5
2023-02-28T17:52:17.398Z,2.3
2023-02-28T18:02:20.041Z,2.1
2023-02-28T18:12:22.393Z,1.6
2023-02-28T18:22:24.506Z,1.4
2023-02-28T18:32:27.295Z,1.5
2023-02-28T18:42:29.926Z,1.4
2023-02-28T18:52:32.019Z,1.3
2023-02-28T19:02:33.828Z,1.1
2023-02-28T19:12:36.169Z,0.7
2023-02-28T19:22:39.092Z,0.8
2023-02-28T19:32:40.349Z,0.7
2023-02-28T19:42:42.270Z,0.6
2023-02-28T19:52:44.179Z,0.5
2023-02-28T20:02:46.782Z,0.2
2023-02-28T20:12:51.961Z,0.3
2023-02-28T20:22:53.690Z,0.1
2023-02-28T20:32:53.249Z,0
2023-02-28T20:42:56.634Z,-0.2
2023-02-28T20:52:57.678Z,-0.5
2023-02-28T21:03:06.421Z,-0.8
2023-02-28T21:13:03.014Z,-0.9
2023-02-28T21:23:03.908Z,-1.1
2023-02-28T21:33:07.766Z,-1.1
2023-02-28T21:43:08.188Z,-1.3
2023-02-28T21:53:10.333Z,-1.3
2023-02-28T22:03:12.748Z,-1.3
2023-02-28T22:13:15.222Z,-1.3
2023-02-28T22:23:17.669Z,-1.5
2023-02-28T22:33:20.055Z,-1.5
2023-02-28T22:43:22.309Z,-1.6
2023-02-28T22:53:23.305Z,-1.9
2023-02-28T23:03:25.962Z,-2.2
2023-02-28T23:13:28.047Z,-1.8
2023-02-28T23:23:29.795Z,-1.6
2023-02-28T23:33:32.427Z,-1.7
2023-02-28T23:43:34.193Z,-1.8
2023-02-28T23:53:36.601Z,-1.9
